sensor_id;sensor_type;location;lat;lon;timestamp;temperature;humidity
36212;DHT22;22247;48.586;13.492;2023-03-13T06:17:36;1.90;99.90
36212;DHT22;22247;48.586;13.492;2023-03-13T06:20:04;1.80;99.90
36212;DHT22;22247;48.586;13.492;2023-03-13T06:27:25;1.80;99.90
36212;DHT22;22247;48.586;13.492;2023-03-13T06:37:11;2.00;99.90
36212;DHT22;22247;48.586;13.492;2023-03-13T06:39:39;2.10;99.90
36212;DHT22;22247;48.586;13.492;2023-03-13T06:42:07;2.20;99.90
36212;DHT22;22247;48.586;13.492;2023-03-13T07:26:04;3.20;99.90
36212;DHT22;22247;48.586;13.492;2023-03-13T07:40:53;3.90;99.90
36212;DHT22;22247;48.586;13.492;2023-03-13T07:43:20;3.90;99.90
36212;DHT22;22247;48.586;13.492;2023-03-13T07:45:56;3.80;99.90
36212;DHT22;22247;48.586;13.492;2023-03-13T07:48:27;3.80;99.90
36212;DHT22;22247;48.586;13.492;2023-03-13T07:55:58;4.10;99.90
36212;DHT22;22247;48.586;13.492;2023-03-13T07:58:27;4.20;99.90
36212;DHT22;22247;48.586;13.492;2023-03-13T08:25:19;5.10;99.90
36212;DHT22;22247;48.586;13.492;2023-03-13T08:30:11;4.70;99.90
36212;DHT22;22247;48.586;13.492;2023-03-13T08:35:03;5.10;99.90
36212;DHT22;22247;48.586;13.492;2023-03-13T08:47:19;4.80;99.90
36212;DHT22;22247;48.586;13.492;2023-03-13T09:14:08;5.30;99.90
36212;DHT22;22247;48.586;13.492;2023-03-13T09:26:22;5.30;99.90
36212;DHT22;22247;48.586;13.492;2023-03-13T09:33:47;5.30;99.90
36212;DHT22;22247;48.586;13.492;2023-03-13T09:44:25;5.60;99.90
36212;DHT22;22247;48.586;13.492;2023-03-13T09:52:24;5.60;99.90
36212;DHT22;22247;48.586;13.492;2023-03-13T09:54:57;5.60;99.90
36212;DHT22;22247;48.586;13.492;2023-03-13T10:00:13;5.60;99.90
36212;DHT22;22247;48.586;13.492;2023-03-13T10:02:50;5.60;99.90
36212;DHT22;22247;48.586;13.492;2023-03-13T10:08:00;5.60;99.90
36212;DHT22;22247;48.586;13.492;2023-03-13T10:13:52;5.80;99.90
36212;DHT22;22247;48.586;13.492;2023-03-13T10:16:25;5.80;99.90
36212;DHT22;22247;48.586;13.492;2023-03-13T10:19:00;5.90;99.90
36212;DHT22;22247;48.586;13.492;2023-03-13T10:21:33;5.80;99.90
36212;DHT22;22247;48.586;13.492;2023-03-13T10:24:15;6.00;99.90
36212;DHT22;22247;48.586;13.492;2023-03-13T10:26:45;6.10;99.90
36212;DHT22;22247;48.586;13.492;2023-03-13T10:29:20;6.30;99.90
36212;DHT22;22247;48.586;13.492;2023-03-13T10:32:01;6.20;99.90
36212;DHT22;22247;48.586;13.492;2023-03-13T10:34:29;6.30;99.90
36212;DHT22;22247;48.586;13.492;2023-03-13T10:37:13;6.30;99.90
36212;DHT22;22247;48.586;13.492;2023-03-13T10:42:10;6.80;99.90
36212;DHT22;22247;48.586;13.492;2023-03-13T10:44:44;6.30;99.90
36212;DHT22;22247;48.586;13.492;2023-03-13T10:47:12;6.40;99.90
36212;DHT22;22247;48.586;13.492;2023-03-13T10:49:54;6.30;99.90
36212;DHT22;22247;48.586;13.492;2023-03-13T10:52:35;6.50;99.90
36212;DHT22;22247;48.586;13.492;2023-03-13T10:55:09;6.70;99.90
36212;DHT22;22247;48.586;13.492;2023-03-13T10:57:35;6.80;99.90
36212;DHT22;22247;48.586;13.492;2023-03-13T11:07:49;7.20;99.90
36212;DHT22;22247;48.586;13.492;2023-03-13T11:10:19;7.20;99.90
36212;DHT22;22247;48.586;13.492;2023-03-13T11:12:51;7.20;99.90
36212;DHT22;22247;48.586;13.492;2023-03-13T11:15:30;7.30;99.90
36212;DHT22;22247;48.586;13.492;2023-03-13T11:20:47;7.60;99.90
36212;DHT22;22247;48.586;13.492;2023-03-13T11:23:29;7.90;99.90
36212;DHT22;22247;48.586;13.492;2023-03-13T11:34:07;8.30;99.90
36212;DHT22;22247;48.586;13.492;2023-03-13T11:39:42;8.20;99.90
36212;DHT22;22247;48.586;13.492;2023-03-13T11:45:00;8.30;99.90
36212;DHT22;22247;48.586;13.492;2023-03-13T11:58:45;9.10;99.90
36212;DHT22;22247;48.586;13.492;2023-03-13T12:01:23;9.00;99.90
36212;DHT22;22247;48.586;13.492;2023-03-13T12:04:12;9.30;99.90
36212;DHT22;22247;48.586;13.492;2023-03-13T12:14:52;9.90;99.90
36212;DHT22;22247;48.586;13.492;2023-03-13T12:17:36;9.50;99.90
36212;DHT22;22247;48.586;13.492;2023-03-13T12:22:57;9.40;99.90
36212;DHT22;22247;48.586;13.492;2023-03-13T12:31:00;9.50;99.90
36212;DHT22;22247;48.586;13.492;2023-03-13T12:33:40;9.40;99.90
36212;DHT22;22247;48.586;13.492;2023-03-13T12:43:50;9.20;99.90
36212;DHT22;22247;48.586;13.492;2023-03-13T12:46:36;9.40;99.90
36212;DHT22;22247;48.586;13.492;2023-03-13T12:49:14;9.60;99.90
36212;DHT22;22247;48.586;13.492;2023-03-13T12:58:14;10.70;99.90
36212;DHT22;22247;48.586;13.492;2023-03-13T13:00:47;10.80;99.90
36212;DHT22;22247;48.586;13.492;2023-03-13T13:03:28;11.00;99.90
36212;DHT22;22247;48.586;13.492;2023-03-13T13:08:30;11.30;99.90
36212;DHT22;22247;48.586;13.492;2023-03-13T13:16:24;11.70;99.90
36212;DHT22;22247;48.586;13.492;2023-03-13T13:21:23;12.10;99.90
36212;DHT22;22247;48.586;13.492;2023-03-13T13:36:57;13.80;99.90
36212;DHT22;22247;48.586;13.492;2023-03-13T13:45:24;13.70;99.90
36212;DHT22;22247;48.586;13.492;2023-03-13T13:48:14;14.10;99.90
36212;DHT22;22247;48.586;13.492;2023-03-13T13:53:33;14.50;99.90
36212;DHT22;22247;48.586;13.492;2023-03-13T14:39:41;16.40;99.90
36212;DHT22;22247;48.586;13.492;2023-03-13T14:42:14;15.20;99.90
36212;DHT22;22247;48.586;13.492;2023-03-13T14:47:27;16.70;99.90
36212;DHT22;22247;48.586;13.492;2023-03-13T14:50:00;15.90;99.90
36212;DHT22;22247;48.586;13.492;2023-03-13T14:54:57;15.00;99.90
36212;DHT22;22247;48.586;13.492;2023-03-13T14:57:32;15.00;99.90
36212;DHT22;22247;48.586;13.492;2023-03-13T15:03:31;15.10;99.90
36212;DHT22;22247;48.586;13.492;2023-03-13T15:09:19;16.10;99.90
36212;DHT22;22247;48.586;13.492;2023-03-13T15:16:19;16.10;99.90
36212;DHT22;22247;48.586;13.492;2023-03-13T15:18:48;16.10;99.90
36212;DHT22;22247;48.586;13.492;2023-03-13T15:24:02;16.10;99.90
36212;DHT22;22247;48.586;13.492;2023-03-13T15:31:28;14.90;99.90
36212;DHT22;22247;48.586;13.492;2023-03-13T15:33:56;14.50;99.90
36212;DHT22;22247;48.586;13.492;2023-03-13T15:46:12;14.10;99.90
36212;DHT22;22247;48.586;13.492;2023-03-13T15:48:39;14.10;99.90
36212;DHT22;22247;48.586;13.492;2023-03-13T15:51:12;14.20;99.90
36212;DHT22;22247;48.586;13.492;2023-03-13T15:53:39;14.00;99.90
36212;DHT22;22247;48.586;13.492;2023-03-13T15:56:14;13.50;99.90
36212;DHT22;22247;48.586;13.492;2023-03-13T15:58:43;13.70;99.90
36212;DHT22;22247;48.586;13.492;2023-03-13T16:01:10;13.40;99.90
36212;DHT22;22247;48.586;13.492;2023-03-13T16:18:22;12.70;99.90
36212;DHT22;22247;48.586;13.492;2023-03-13T16:20:49;12.50;99.90
36212;DHT22;22247;48.586;13.492;2023-03-13T16:25:46;12.50;99.90
36212;DHT22;22247;48.586;13.492;2023-03-13T16:30:41;12.20;99.90
36212;DHT22;22247;48.586;13.492;2023-03-13T16:33:11;12.10;99.90
36212;DHT22;22247;48.586;13.492;2023-03-13T16:35:37;11.60;99.90
36212;DHT22;22247;48.586;13.492;2023-03-13T16:40:31;11.30;99.90
36212;DHT22;22247;48.586;13.492;2023-03-13T16:47:52;11.20;99.90
36212;DHT22;22247;48.586;13.492;2023-03-13T16:50:56;10.60;99.90
36212;DHT22;22247;48.586;13.492;2023-03-13T16:58:09;10.70;99.90
36212;DHT22;22247;48.586;13.492;2023-03-13T17:05:33;10.30;99.90
36212;DHT22;22247;48.586;13.492;2023-03-13T17:10:31;9.80;99.90
36212;DHT22;22247;48.586;13.492;2023-03-13T17:12:59;9.90;99.90
36212;DHT22;22247;48.586;13.492;2023-03-13T17:15:26;9.80;99.90
36212;DHT22;22247;48.586;13.492;2023-03-13T17:20:25;9.40;99.90
36212;DHT22;22247;48.586;13.492;2023-03-13T17:25:17;9.00;99.90
36212;DHT22;22247;48.586;13.492;2023-03-13T17:27:43;9.10;99.90
36212;DHT22;22247;48.586;13.492;2023-03-13T17:30:26;8.90;99.90
36212;DHT22;22247;48.586;13.492;2023-03-13T17:35:19;9.00;99.90
36212;DHT22;22247;48.586;13.492;2023-03-13T17:45:09;8.90;99.90
36212;DHT22;22247;48.586;13.492;2023-03-13T17:47:38;9.10;99.90
36212;DHT22;22247;48.586;13.492;2023-03-13T17:55:07;8.70;99.90
36212;DHT22;22247;48.586;13.492;2023-03-13T17:57:35;8.50;99.90
36212;DHT22;22247;48.586;13.492;2023-03-13T18:07:24;8.50;99.90
36212;DHT22;22247;48.586;13.492;2023-03-13T18:17:22;8.20;99.90
36212;DHT22;22247;48.586;13.492;2023-03-13T18:19:49;8.30;99.90
36212;DHT22;22247;48.586;13.492;2023-03-13T18:22:17;8.50;99.90
36212;DHT22;22247;48.586;13.492;2023-03-13T18:27:15;8.50;99.90
36212;DHT22;22247;48.586;13.492;2023-03-13T18:39:31;8.60;99.90
36212;DHT22;22247;48.586;13.492;2023-03-13T18:44:26;8.50;99.90
36212;DHT22;22247;48.586;13.492;2023-03-13T18:49:21;7.70;99.90
36212;DHT22;22247;48.586;13.492;2023-03-13T18:51:50;8.10;99.90
36212;DHT22;22247;48.586;13.492;2023-03-13T18:56:46;8.10;99.90
36212;DHT22;22247;48.586;13.492;2023-03-13T18:59:16;8.00;99.90
36212;DHT22;22247;48.586;13.492;2023-03-13T19:09:14;8.00;99.90
36212;DHT22;22247;48.586;13.492;2023-03-13T19:16:44;7.60;99.90
36212;DHT22;22247;48.586;13.492;2023-03-13T19:21:40;7.50;99.90
36212;DHT22;22247;48.586;13.492;2023-03-13T19:24:06;7.40;99.90
36212;DHT22;22247;48.586;13.492;2023-03-13T19:28:58;7.30;99.90
36212;DHT22;22247;48.586;13.492;2023-03-13T19:31:26;7.20;99.90
36212;DHT22;22247;48.586;13.492;2023-03-13T19:33:54;7.40;99.90
36212;DHT22;22247;48.586;13.492;2023-03-13T19:36:22;7.40;99.90
36212;DHT22;22247;48.586;13.492;2023-03-13T19:38:49;7.30;99.90
36212;DHT22;22247;48.586;13.492;2023-03-13T19:43:41;7.20;99.90
36212;DHT22;22247;48.586;13.492;2023-03-13T19:56:19;7.30;99.90
36212;DHT22;22247;48.586;13.492;2023-03-13T19:58:47;7.50;99.90
36212;DHT22;22247;48.586;13.492;2023-03-13T20:03:42;7.10;99.90
36212;DHT22;22247;48.586;13.492;2023-03-13T20:06:14;7.00;99.90
36212;DHT22;22247;48.586;13.492;2023-03-13T20:20:54;6.40;99.90
36212;DHT22;22247;48.586;13.492;2023-03-13T20:30:41;5.50;99.90
36212;DHT22;22247;48.586;13.492;2023-03-13T20:33:11;5.90;99.90
36212;DHT22;22247;48.586;13.492;2023-03-13T20:40:33;5.60;99.90
36212;DHT22;22247;48.586;13.492;2023-03-13T20:55:15;5.50;99.90
36212;DHT22;22247;48.586;13.492;2023-03-13T21:00:07;5.40;99.90
36212;DHT22;22247;48.586;13.492;2023-03-13T21:07:30;5.20;99.90
36212;DHT22;22247;48.586;13.492;2023-03-13T21:31:56;4.40;99.90
36212;DHT22;22247;48.586;13.492;2023-03-13T21:36:51;4.30;99.90
36212;DHT22;22247;48.586;13.492;2023-03-13T21:41:45;4.30;99.90
36212;DHT22;22247;48.586;13.492;2023-03-13T21:53:57;4.50;99.90
36212;DHT22;22247;48.586;13.492;2023-03-13T22:06:19;4.40;99.90
36212;DHT22;22247;48.586;13.492;2023-03-13T22:13:42;4.10;99.90
36212;DHT22;22247;48.586;13.492;2023-03-13T22:16:08;4.10;99.90
36212;DHT22;22247;48.586;13.492;2023-03-13T22:21:01;4.30;99.90
36212;DHT22;22247;48.586;13.492;2023-03-13T22:23:28;4.00;99.90
36212;DHT22;22247;48.586;13.492;2023-03-13T22:25:56;4.10;99.90
36212;DHT22;22247;48.586;13.492;2023-03-13T22:38:07;4.20;99.90
36212;DHT22;22247;48.586;13.492;2023-03-13T22:40:33;4.10;99.90
36212;DHT22;22247;48.586;13.492;2023-03-13T22:47:53;4.10;99.90
36212;DHT22;22247;48.586;13.492;2023-03-13T22:55:20;4.30;99.90
36212;DHT22;22247;48.586;13.492;2023-03-13T23:00:14;4.30;99.90
36212;DHT22;22247;48.586;13.492;2023-03-13T23:02:42;4.00;99.90
36212;DHT22;22247;48.586;13.492;2023-03-13T23:05:11;4.20;99.90
36212;DHT22;22247;48.586;13.492;2023-03-13T23:07:37;3.80;99.90
36212;DHT22;22247;48.586;13.492;2023-03-13T23:10:06;4.00;99.90
36212;DHT22;22247;48.586;13.492;2023-03-13T23:17:25;3.50;99.90
36212;DHT22;22247;48.586;13.492;2023-03-13T23:22:19;3.50;99.90
36212;DHT22;22247;48.586;13.492;2023-03-13T23:24:47;4.00;99.90
36212;DHT22;22247;48.586;13.492;2023-03-13T23:29:39;5.30;99.90
36212;DHT22;22247;48.586;13.492;2023-03-13T23:32:05;6.10;99.90
36212;DHT22;22247;48.586;13.492;2023-03-13T23:41:51;5.30;99.90
36212;DHT22;22247;48.586;13.492;2023-03-13T23:51:39;4.60;99.90
